Weather at General Abelardo L. Rodríguez International Airport

Public forecast

Using degrees Celsius for public forecast. Weather courtesy of forecast.io.

Current aviation weather report (METAR) for General Abelardo L. Rodríguez International Airport

Retrieved 2022/05/26 20:53 UTC (21 minutes ago):

MMTJ 262053Z 25009KT 8SM SKC 20/13 A3000 RMK SLP156 52007 913 HZ ST W

Aviation forecast (TAF) for General Abelardo L. Rodríguez International Airport

Retrieved 2022/05/26 18:33 UTC (3 hours ago):

TAF MMTJ 261626Z 2618/2724 00000KT 4SM HZ BKN010 TX20/2621Z TN15/2709Z FM262000 28010KT P6SM SKC FM270600 00000KT 3SM BR OVC010 TEMPO 2712/2715 1SM BR BKN006 FM271800 28010KT P6SM SKC